Data for 06/07/2009

Time Sea-Level Adjusted Pressure Absolute Pressure Temperature Relative Humidity Dew Point   
(mb) (inHg) (mb) (inHg) (C) (F) (%) (C) (F)
00:05 1015 29.97 844 24.92 2.5 36.5 90 1 33.8
00:10 1015 29.97 844 24.92 2.5 36.5 90 1 33.9
00:15 1015 29.97 844 24.92 2.4 36.4 91 1.2 34.1
00:20 1015 29.97 844 24.92 2.4 36.3 91 1 33.8
00:25 1015 29.97 844 24.92 2.2 36 90 0.8 33.4
00:30 1015 29.97 844 24.92 2.2 35.9 90 0.7 33.2
00:35 1015 29.97 844 24.92 2.2 35.9 91 0.9 33.5
00:40 1015 29.97 844 24.92 2.3 36.1 90 0.8 33.4
00:45 1015 29.97 844 24.92 2.4 36.3 91 1.1 34
00:50 1015 29.97 844 24.92 2.3 36.1 92 1.1 33.9
00:55 1015 29.97 844 24.92 2.2 35.9 92 0.9 33.7
01:00 1014 29.94 844 24.92 2.1 35.7 90 0.5 33
01:05 1014 29.94 844 24.92 2 35.6 88 0.2 32.4
01:10 1014 29.94 843 24.89 2 35.6 88 0.2 32.3
01:15 1014 29.94 843 24.89 2 35.5 85 -0.3 31.5
01:20 1014 29.94 843 24.89 2 35.6 84 -0.4 31.3
01:25 1014 29.94 844 24.92 2 35.6 85 -0.3 31.4
01:30 1014 29.94 843 24.89 2 35.6 85 -0.2 31.6
01:35 1014 29.94 843 24.89 2.1 35.7 83 -0.5 31.2
01:40 1014 29.94 844 24.92 2.1 35.8 83 -0.5 31.1
01:45 1014 29.94 844 24.92 2.2 35.9 82 -0.6 31
01:50 1014 29.94 844 24.92 2.2 35.9 85 -0 32
01:55 1014 29.94 844 24.92 2.3 36.1 87 0.3 32.5
02:00 1014 29.94 844 24.92 2.3 36.1 87 0.4 32.7
02:05 1014 29.94 844 24.92 2.3 36.2 88 0.6 33
02:10 1014 29.94 843 24.89 2.3 36.2 85 0 32
02:15 1014 29.94 844 24.92 2.4 36.3 83 -0.2 31.6
02:20 1014 29.94 844 24.92 2.3 36.2 85 0 32.1
02:25 1014 29.94 843 24.89 2.3 36.1 85 0.1 32.1
02:30 1014 29.94 843 24.89 2.3 36.1 85 0.1 32.1
02:35 1014 29.94 843 24.89 2.2 36 83 -0.3 31.5
02:40 1014 29.94 844 24.92 2.2 36 84 -0.2 31.6
02:45 1014 29.94 843 24.89 2.3 36.1 83 -0.4 31.3
02:50 1014 29.94 844 24.92 2.3 36.2 83 -0.2 31.7
02:55 1014 29.94 844 24.92 2.3 36.2 83 -0.4 31.3
03:00 1014 29.94 844 24.92 2.3 36.2 84 -0.1 31.8
03:05 1015 29.97 844 24.92 2.4 36.2 84 -0.1 31.8
03:10 1015 29.97 844 24.92 2.4 36.3 85 0.1 32.1
03:15 1015 29.97 844 24.92 2.3 36.1 85 0 32
03:20 1015 29.97 844 24.92 1.8 35.2 87 -0.1 31.8
03:25 1015 29.97 844 24.92 1.8 35.2 87 -0.1 31.8
03:30 1015 29.97 844 24.92 1.6 34.9 89 0 32
03:35 1015 29.97 844 24.92 1.6 34.8 90 0.1 32.2
03:40 1015 29.97 844 24.92 1.6 34.8 90 0.1 32.2
03:45 1015 29.97 844 24.92 1.5 34.7 90 0.1 32.2
03:50 1015 29.97 844 24.92 1.5 34.6 92 0.3 32.5
03:55 1015 29.97 844 24.92 1.5 34.7 91 0.2 32.4
04:00 1015 29.97 844 24.92 1.6 34.9 92 0.4 32.7
04:05 1015 29.97 844 24.92 1.5 34.8 93 0.6 33
04:10 1015 29.97 844 24.92 1.6 34.9 92 0.5 32.9
04:15 1015 29.97 844 24.92 1.7 35.1 93 0.7 33.3
04:20 1015 29.97 844 24.92 1.8 35.2 93 0.8 33.4
04:25 1014 29.94 844 24.92 1.7 35.1 93 0.7 33.3
04:30 1014 29.94 844 24.92 1.7 35.1 94 0.9 33.6
04:35 1014 29.94 844 24.92 1.7 35 92 0.6 33
04:40 1014 29.94 844 24.92 1.5 34.7 92 0.4 32.7
04:45 1014 29.94 844 24.92 1.3 34.3 93 0.3 32.5
04:50 1014 29.94 844 24.92 1.1 34.1 94 0.3 32.5
04:55 1014 29.94 844 24.92 1 33.8 95 0.3 32.5
05:00 1014 29.94 844 24.92 1 33.7 95 0.3 32.5
05:05 1014 29.94 844 24.92 0.9 33.7 95 0.3 32.5
05:10 1014 29.94 844 24.92 0.8 33.5 96 0.3 32.5
05:15 1014 29.94 844 24.92 0.7 33.3 96 0.2 32.3
05:20 1014 29.94 844 24.92 0.6 33.1 97 0.1 32.2
05:25 1014 29.94 843 24.89 0.5 33 97 0.1 32.2
05:30 1014 29.94 843 24.89 0.6 33 97 0.2 32.3
05:35 1014 29.94 843 24.89 0.6 33.1 97 0.2 32.4
05:40 1014 29.94 844 24.92 0.7 33.3 97 0.3 32.5
05:45 1014 29.94 844 24.92 0.7 33.3 98 0.4 32.6
05:50 1014 29.94 844 24.92 0.7 33.2 98 0.3 32.6
05:55 1014 29.94 843 24.89 0.7 33.2 98 0.4 32.6
06:00 1014 29.94 843 24.89 0.7 33.3 97 0.3 32.5
06:05 1014 29.94 843 24.89 0.6 33 98 0.2 32.4
06:10 1014 29.94 843 24.89 0.5 32.9 97 0.1 32.3
06:15 1014 29.94 843 24.89 0.5 33 98 0.2 32.3
06:20 1014 29.94 844 24.92 0.6 33 97 0.2 32.4
06:25 1014 29.94 844 24.92 0.7 33.2 97 0.3 32.5
06:30 1014 29.94 844 24.92 0.8 33.4 97 0.3 32.5
06:35 1014 29.94 844 24.92 0.8 33.5 96 0.3 32.6
06:40 1014 29.94 844 24.92 0.9 33.6 96 0.3 32.6
06:45 1014 29.94 844 24.92 0.9 33.6 96 0.3 32.6
06:50 1014 29.94 844 24.92 0.8 33.4 96 0.2 32.4
06:55 1014 29.94 844 24.92 0.7 33.3 97 0.3 32.5
07:00 1014 29.94 844 24.92 0.8 33.4 96 0.3 32.5
07:05 1014 29.94 844 24.92 0.9 33.7 96 0.4 32.7
07:10 1014 29.94 844 24.92 0.9 33.7 96 0.3 32.6
07:15 1014 29.94 843 24.89 1 33.7 95 0.3 32.5
07:20 1014 29.94 844 24.92 1 33.7 95 0.2 32.4
07:25 1014 29.94 844 24.92 0.9 33.7 94 0.1 32.3
07:30 1014 29.94 844 24.92 1 33.9 94 0.2 32.4
07:35 1014 29.94 844 24.92 1.1 34 95 0.3 32.6
07:40 1015 29.97 844 24.92 1.1 34.1 94 0.3 32.5
07:45 1015 29.97 844 24.92 1.1 33.9 93 0.1 32.2
07:50 1015 29.97 844 24.92 1.1 34 94 0.3 32.5
07:55 1015 29.97 844 24.92 1.2 34.1 95 0.4 32.7
08:00 1015 29.97 844 24.92 1.2 34.1 94 0.3 32.6
08:05 1015 29.97 844 24.92 1.1 34 94 0.3 32.5
08:10 1015 29.97 844 24.92 0.9 33.6 96 0.3 32.5
08:15 1015 29.97 844 24.92 0.8 33.4 96 0.2 32.4
08:20 1015 29.97 844 24.92 0.7 33.2 97 0.2 32.4
08:25 1015 29.97 844 24.92 0.7 33.2 97 0.2 32.4
08:30 1015 29.97 844 24.92 0.7 33.3 97 0.3 32.5
08:35 1015 29.97 844 24.92 0.8 33.4 97 0.3 32.6
08:40 1015 29.97 844 24.92 0.9 33.6 96 0.4 32.7
08:45 1015 29.97 844 24.92 1.1 34 96 0.5 32.9
08:50 1015 29.97 844 24.92 1.2 34.1 95 0.5 33
08:55 1015 29.97 844 24.92 1.3 34.3 95 0.6 33.1
09:00 1015 29.97 844 24.92 1.4 34.5 95 0.6 33.1
09:05 1015 29.97 844 24.92 1.4 34.6 94 0.6 33
09:10 1015 29.97 844 24.92 1.5 34.8 94 0.7 33.3
09:15 1015 29.97 844 24.92 1.5 34.7 94 0.7 33.3
09:20 1015 29.97 844 24.92 1.5 34.8 94 0.7 33.2
09:25 1015 29.97 844 24.92 1.8 35.2 94 0.9 33.6
09:30 1015 29.97 844 24.92 2 35.7 92 0.9 33.6
09:35 1015 29.97 844 24.92 1.9 35.4 92 0.7 33.3
09:40 1015 29.97 844 24.92 2 35.6 91 0.7 33.3
09:45 1015 29.97 844 24.92 2 35.7 90 0.5 32.9
09:50 1015 29.97 844 24.92 2.1 35.8 89 0.5 32.9
09:55 1015 29.97 844 24.92 2.2 36 88 0.5 32.9
10:00 1015 29.97 844 24.92 2.4 36.4 87 0.6 33
10:05 1015 29.97 844 24.92 2.5 36.5 88 0.6 33.1
10:10 1015 29.97 844 24.92 2.4 36.3 88 0.6 33.1
10:15 1015 29.97 844 24.92 2.6 36.6 87 0.6 33.1
10:20 1015 29.97 844 24.92 2.6 36.8 89 0.9 33.7
10:25 1015 29.97 844 24.92 2.8 37 87 0.8 33.4
10:30 1015 29.97 844 24.92 2.7 36.8 86 0.6 33.1
10:35 1015 29.97 844 24.92 2.7 36.9 87 0.8 33.4
10:40 1015 29.97 844 24.92 3 37.4 86 0.9 33.7
10:45 1015 29.97 844 24.92 3.3 38 85 1 33.8
10:50 1015 29.97 844 24.92 3.2 37.7 84 0.7 33.3
10:55 1015 29.97 844 24.92 3.4 38.1 83 0.7 33.2
11:00 1015 29.97 845 24.95 3.6 38.5 85 1.3 34.4
11:05 1015 29.97 845 24.95 3.7 38.7 85 1.5 34.7
11:10 1015 29.97 845 24.95 3.6 38.6 83 1.1 33.9
11:15 1015 29.97 845 24.95 3.5 38.3 85 1.2 34.1
11:20 1015 29.97 845 24.95 3.7 38.7 86 1.6 34.8
11:25 1015 29.97 845 24.95 3.9 39 83 1.2 34.2
11:30 1015 29.97 845 24.95 3.6 38.6 84 1.3 34.3
11:35 1015 29.97 845 24.95 3.6 38.5 82 0.8 33.5
11:40 1015 29.97 845 24.95 3.9 38.9 82 1.1 34
11:45 1015 29.97 845 24.95 4 39.2 84 1.5 34.8
11:50 1015 29.97 845 24.95 4.3 39.8 85 2 35.5
11:55 1015 29.97 845 24.95 4.9 40.7 82 2 35.6
12:00 1015 29.97 845 24.95 5 40.9 80 1.8 35.2
12:05 1015 29.97 845 24.95 5.1 41.2 76 1.3 34.3
12:10 1015 29.97 845 24.95 5.2 41.4 79 1.8 35.3
12:15 1015 29.97 845 24.95 5.2 41.4 78 1.8 35.2
12:20 1015 29.97 845 24.95 5.4 41.6 76 1.5 34.7
12:25 1015 29.97 845 24.95 5 41.1 78 1.5 34.6
12:30 1016 30 845 24.95 5.3 41.5 74 1 33.9
12:35 1016 30 845 24.95 5.2 41.4 80 2.1 35.8
12:40 1016 30 845 24.95 5.6 42.2 76 1.7 35.1
12:45 1016 30 845 24.95 5.2 41.3 75 1.2 34.2
12:50 1016 30 845 24.95 5.4 41.7 76 1.5 34.6
12:55 1016 30 845 24.95 5 41.1 79 1.7 35
13:00 1016 30 845 24.95 4.7 40.5 80 1.5 34.8
13:05 1016 30 845 24.95 4.7 40.4 79 1.3 34.3
13:10 1016 30 845 24.95 4.6 40.3 76 0.8 33.4
13:15 1016 30 845 24.95 5.1 41.1 76 1.2 34.1
13:20 1016 30 845 24.95 5.3 41.6 74 1 33.8
13:25 1016 30 845 24.95 5.8 42.4 70 0.8 33.5
13:30 1016 30 845 24.95 7 44.6 63 0.4 32.7
13:35 1016 30 845 24.95 8 46.3 60 0.8 33.4
13:40 1016 30 845 24.95 7.8 46.1 58 0.1 32.1
13:45 1016 30 845 24.95 7.5 45.4 60 0.3 32.5
13:50 1016 30 845 24.95 7.9 46.1 59 0.3 32.5
13:55 1016 30 845 24.95 8.2 46.8 57 0.2 32.4
14:00 1016 30 845 24.95 7.7 45.8 60 0.4 32.7
14:05 1016 30 845 24.95 7.7 45.9 56 -0.5 31
14:10 1016 30 845 24.95 8.6 47.5 55 0.1 32.1
14:15 1016 30 845 24.95 7.5 45.6 61 0.6 33.1
14:20 1016 30 845 24.95 7.4 45.4 62 0.6 33
14:25 1016 30 845 24.95 7.7 45.9 58 0 32
14:30 1016 30 845 24.95 7.4 45.4 66 1.5 34.7
14:35 1016 30 845 24.95 7.3 45.1 63 0.8 33.4
14:40 1016 30 845 24.95 7.4 45.4 66 1.4 34.6
14:45 1016 30 845 24.95 7.5 45.6 65 1.4 34.5
14:50 1016 30 845 24.95 7.4 45.3 64 1 33.9
14:55 1016 30 845 24.95 7.5 45.6 63 0.9 33.6
15:00 1016 30 845 24.95 7.7 45.9 68 2.2 36
15:05 1016 30 845 24.95 7.1 44.8 67 1.4 34.5
15:10 1016 30 845 24.95 6.9 44.4 67 1.3 34.3
15:15 1016 30 845 24.95 7.4 45.3 68 1.9 35.4
15:20 1016 30 845 24.95 7.4 45.4 65 1.2 34.2
15:25 1016 30 845 24.95 7.1 44.8 68 1.6 34.8
15:30 1016 30 845 24.95 7.4 45.4 67 1.7 35
15:35 1016 30 845 24.95 7.2 45 71 2.4 36.2
15:40 1016 30 845 24.95 6.7 44.1 72 2 35.5
15:45 1016 30 845 24.95 6.9 44.4 74 2.5 36.5
15:50 1016 30 845 24.95 7.4 45.3 67 1.8 35.2
15:55 1016 30 845 24.95 7.8 46 69 2.5 36.6
16:00 1016 30 845 24.95 8.9 47.9 63 2.2 35.9
16:05 1016 30 845 24.95 9.1 48.3 67 3.3 38
16:10 1016 30 845 24.95 8.8 47.9 69 3.6 38.4
16:15 1016 30 845 24.95 9 48.2 61 2 35.6
16:20 1016 30 845 24.95 8.9 48 66 2.9 37.2
16:25 1016 30 845 24.95 9.2 48.5 59 1.7 35
16:30 1016 30 845 24.95 9 48.1 58 1.1 34
16:35 1016 30 845 24.95 8.8 47.8 61 1.7 35
16:40 1016 30 845 24.95 9.3 48.7 55 0.6 33.1
16:45 1016 30 845 24.95 8.7 47.6 58 0.9 33.6
16:50 1016 30 845 24.95 8.7 47.6 60 1.4 34.5
16:55 1016 30 845 24.95 9 48.2 58 1.3 34.3
17:00 1016 30 845 24.95 8.8 47.8 57 0.7 33.2
17:05 1016 30 845 24.95 9.8 49.7 55 1.3 34.3
17:10 1016 30 845 24.95 10.4 50.8 55 1.7 35.1
17:15 1016 30 845 24.95 9.9 49.8 53 0.8 33.5
17:20 1016 30 845 24.95 10.6 51.1 50 0.8 33.5
17:25 1016 30 845 24.95 10.1 50.1 54 1.2 34.2
17:30 1016 30 845 24.95 9.5 49.1 52 0.1 32.1
17:35 1016 30 845 24.95 10.6 51 49 0.4 32.7
17:40 1016 30 845 24.95 10.7 51.2 50 0.7 33.2
17:45 1016 30 845 24.95 10.3 50.6 50 0.3 32.6
17:50 1016 30 845 24.95 10.9 51.6 49 0.6 33
17:55 1016 30 845 24.95 11.2 52.1 49 0.8 33.4
18:00 1016 30 845 24.95 10.3 50.5 53 1.3 34.3
18:05 1016 30 845 24.95 8.5 47.2 56 0.2 32.3
18:10 1016 30 845 24.95 8.5 47.3 56 0.3 32.5
18:15 1016 30 845 24.95 9.1 48.4 54 0.3 32.6
18:20 1016 30 845 24.95 10 49.9 52 0.6 33
18:25 1016 30 845 24.95 9.6 49.2 52 0.4 32.6
18:30 1016 30 845 24.95 9.6 49.2 50 -0.2 31.6
18:35 1016 30 845 24.95 10 49.9 49 -0.1 31.8
18:40 1016 30 845 24.95 10.2 50.4 49 0.1 32.2
18:45 1016 30 845 24.95 10.2 50.3 48 -0.3 31.4
18:50 1016 30 845 24.95 10.2 50.4 48 -0.1 31.8
18:55 1016 30 845 24.95 9.9 49.9 48 -0.6 30.9
19:00 1016 30 845 24.95 9.9 49.8 50 -0.1 31.8
19:05 1016 30 845 24.95 9.3 48.7 49 -1 30.3
19:10 1016 30 845 24.95 9.1 48.3 50 -0.8 30.6
19:15 1016 30 845 24.95 9 48.1 51 -0.5 31.2
19:20 1016 30 845 24.95 8.5 47.3 53 -0.5 31.1
19:25 1016 30 845 24.95 8.7 47.6 52 -0.6 30.9
19:30 1016 30 845 24.95 8.2 46.8 53 -0.7 30.7
19:35 1016 30 845 24.95 8 46.4 54 -0.8 30.6
19:40 1016 30 845 24.95 8 46.5 56 -0.3 31.5
19:45 1016 30 845 24.95 8 46.4 56 -0.1 31.7
19:50 1016 30 845 24.95 8.1 46.6 58 0.4 32.7
19:55 1016 30 845 24.95 7.6 45.8 62 0.9 33.6
20:00 1016 30 845 24.95 7.3 45.1 63 0.8 33.4
20:05 1016 30 845 24.95 7.1 44.8 63 0.5 32.9
20:10 1016 30 846 24.98 7 44.6 65 0.8 33.4
20:15 1016 30 846 24.98 6.8 44.2 66 0.9 33.6
20:20 1016 30 846 24.98 6.6 43.9 67 0.9 33.6
20:25 1016 30 846 24.98 6.5 43.6 67 0.8 33.4
20:30 1016 30 846 24.98 6.3 43.4 67 0.7 33.3
20:35 1016 30 846 24.98 6.2 43.2 69 1 33.7
20:40 1017 30.03 846 24.98 6.1 42.9 70 1 33.8
20:45 1017 30.03 846 24.98 5.9 42.6 71 1 33.9
20:50 1017 30.03 846 24.98 5.8 42.5 71 1 33.9
20:55 1016 30 846 24.98 5.7 42.3 73 1.3 34.3
21:00 1016 30 846 24.98 5.6 42.1 74 1.4 34.6
21:05 1016 30 846 24.98 5.5 41.9 75 1.4 34.5
21:10 1016 30 846 24.98 5.5 41.8 75 1.4 34.5
21:15 1016 30 846 24.98 5.4 41.7 75 1.3 34.3
21:20 1016 30 846 24.98 5.3 41.5 76 1.4 34.6
21:25 1016 30 846 24.98 5.1 41.3 77 1.4 34.5
21:30 1017 30.03 846 24.98 5 41.1 78 1.5 34.6
21:35 1017 30.03 846 24.98 5 40.9 77 1.3 34.4
21:40 1017 30.03 846 24.98 4.9 40.8 78 1.4 34.5
21:45 1017 30.03 846 24.98 4.8 40.6 79 1.5 34.6
21:50 1017 30.03 846 24.98 4.7 40.4 80 1.5 34.7
21:55 1017 30.03 846 24.98 4.6 40.3 80 1.5 34.7
22:00 1017 30.03 846 24.98 4.5 40.2 80 1.4 34.5
22:05 1017 30.03 846 24.98 4.5 40.1 80 1.3 34.3
22:10 1017 30.03 846 24.98 4.5 40 80 1.3 34.3
22:15 1017 30.03 846 24.98 4.4 39.9 80 1.3 34.3
22:20 1017 30.03 846 24.98 4.3 39.7 81 1.3 34.3
22:25 1017 30.03 846 24.98 4.2 39.6 79 1 33.8
22:30 1017 30.03 846 24.98 4.2 39.6 80 1.1 34
22:35 1017 30.03 846 24.98 4.2 39.6 79 0.9 33.6
22:40 1017 30.03 846 24.98 4.2 39.5 80 1.1 33.9
22:45 1017 30.03 846 24.98 4 39.3 82 1.2 34.1
22:50 1017 30.03 846 24.98 3.9 39 82 1.1 34
22:55 1017 30.03 846 24.98 3.8 38.9 82 1 33.8
23:00 1017 30.03 846 24.98 3.8 38.8 81 0.9 33.6
23:05 1017 30.03 846 24.98 3.8 38.8 82 0.9 33.7
23:10 1017 30.03 846 24.98 3.8 38.8 82 0.9 33.7
23:15 1017 30.03 846 24.98 3.8 38.8 81 0.9 33.6
23:20 1017 30.03 846 24.98 3.8 38.8 81 0.9 33.6
23:25 1017 30.03 846 24.98 3.8 38.9 82 1 33.8
23:30 1017 30.03 846 24.98 3.8 38.8 83 1.1 34
23:35 1017 30.03 846 24.98 3.7 38.7 84 1.3 34.3
23:40 1017 30.03 846 24.98 3.7 38.7 84 1.2 34.2
23:45 1017 30.03 846 24.98 3.7 38.7 84 1.3 34.4
23:50 1017 30.03 846 24.98 3.7 38.6 84 1.3 34.3
23:55 1017 30.03 846 24.98 3.6 38.5 84 1.2 34.1
24:00 1017 30.03 846 24.98 3.6 38.4 84 1.2 34.1